Terminal Aerodrome Forecast
Issued by NWS

Home | Current Version | Previous Version | Graphics & Text | Print | Product List | Glossary On
Versions: 1 2 3 4 5 6 7 8 9 10 11 12 13 14 15 16 17 18 19 20 21
292
FTUS43 KABR 221446 AAB
TAFPIR
TAF AMD
KPIR 221446Z 2215/2312 15018G24KT P6SM VCSH BKN015 OVC080
     FM221800 15024G34KT P6SM SCT110
     FM222300 15017G25KT P6SM SCT200=

USA.gov is the U.S. government's official web portal to all federal, state and local government web resources and services.